Decoded Metar for KNAK (ANNAPOLIS/NAVAL in MD, USA) (IATA:NAK) | Meteo·Mobile Aviation Weather
aviador You're here:

KNAK Decoded Metar

ANNAPOLIS/NAVAL in MD, USA
Report Time2018-09-22 07:54:00
UTC Time2018-09-22 08:57:21
Flight Rules vfr VFR
Wind240° at 06 kt
W.Rank240° ranks 32
Current wind is above 240° avg. (5.3)
Visibility9999 m
Phenomena:N/A
Clouds:N/A
Expected CloudBase > 1,600 ft AGL from Temp-Dew spread
CeilingNone
Temp25°C (ISA +10)
Dew Point21°C (79% RH)
QNH1016 hPa
Density Alt1,394 ft
Elevation7 ft
Report Wrong Elevation
Raw Report
KNAK 220754Z AUTO 24006KT 10SM CLR 25/21 A2999 RMK AO2 SLP156
T02500206=

Extra information for KNAK:More info

Metar Taf Metar & Taf Last 4 Metars F.Rules Stats Wind Profile Meteogram Temp Stats Airport Information Weather charts Add Link Nearby VenuesMetar ALERT Operation Metar Decoded Social comments

AIRNAV info for KNAK